x

Thomas Point, Md (tplm2) Weather Station

2:00am - Sat 2nd Aug 2014 All times are EDT. -4 hours from GMT.

  • Wind
    13mph, 15mph gusts
  • Sea Temp 77°f
  • Air Temp 69°f
  • Sea Pressure 1020.8mb
  • Thomas Point, Md
  • Thomas Point, Md

More Historic Weather Station data

Upgrade to MSW Pro to gain access to the past 30 days of data for over 8000 Wavebouys and Weather Stations around the globe.

Join Pro

Comparision Forecast

View Surf forecast
   
Sat 08/02 2:00am 13 15 mph 1020.8mb 77f 69f
1:00am 10 11 mph 1021.5mb 77f 69f
12:00am 6 7 mph 1022.1mb 78f 69f
Fri 08/01 11:00pm 10
mph
1022.4mb 78f 70f
10:00pm 16 18 mph 1022.4mb 78f 73f
9:00pm 11 13 mph 1021.8mb 78f 74f
8:00pm 10 11 mph 1021.6mb 78f 74f
7:00pm 10
mph
1021.4mb 78f 75f
6:00pm 14
mph
1021.8mb 78f 75f
5:00pm 9 11 mph 1022mb 78f 75f
4:00pm 3 5 mph 1022.1mb 78f 76f
3:00pm 3
mph
1022.3mb 78f 75f
2:00pm 6 7 mph 1022.9mb 78f 75f
1:00pm 8
mph
1023.5mb 78f 75f
12:00pm 8 9 mph 1023.3mb 78f 75f
11:00am 8 9 mph 1023mb 78f 75f
10:00am 8 9 mph 1022.3mb 78f 75f
9:00am 11 13 mph 1022.2mb 78f 74f
8:00am 14 15 mph 1022.4mb 77f 74f
7:00am 17 18 mph 1021.9mb 77f 75f
6:00am 18 21 mph 1021.3mb 77f 75f
5:00am 18 21 mph 1021mb 78f 75f
4:00am 16 17 mph 1021.2mb 78f 76f
3:00am 16 18 mph 1021.1mb 78f 76f
2:00am 16 18 mph 1021.2mb 78f 76f
1:00am 17 18 mph 1021.2mb 78f 77f
12:00am 16 17 mph 1020.9mb 78f 78f
Thu 07/31 11:00pm 14 15 mph 1020.5mb 78f 77f
10:00pm 13 14 mph 1020.6mb 78f 78f
9:00pm 14 15 mph 1020.2mb 78f 79f
8:00pm 15 16 mph 1019.8mb 78f 79f
7:00pm 18 21 mph 1019.2mb 78f 79f
6:00pm 20 22 mph 1019.1mb 78f 79f
5:00pm 17 18 mph 1019.1mb 78f 79f
4:00pm 18 20 mph 1019.2mb 78f 79f
3:00pm 18 20 mph 1019.4mb 78f 78f
2:00pm 16 17 mph 1019.5mb 78f 78f
1:00pm 14
mph
1019.8mb 78f 77f
12:00pm 14 15 mph 1020mb 77f 76f
11:00am 14 16 mph 1020.2mb 77f 74f
10:00am 10 11 mph 1020.2mb 77f 73f
9:00am 11 13 mph 1020.1mb 77f 71f
8:00am 9 10 mph 1019.9mb 77f 69f
7:00am 13 14 mph 1019.6mb 77f 68f
6:00am 14 16 mph 1019.2mb 77f 70f
5:00am 15
mph
1018.8mb 77f 71f
4:00am 15 16 mph 1018.4mb 77f 74f
3:00am 16 17 mph 1018.7mb 77f 73f
2:00am 9 10 mph 1018.6mb 77f 73f
1:00am 9 10 mph 1018.7mb 77f 73f
12:00am 8 9 mph 1018.4mb 77f 74f
Wed 07/30 11:00pm 9 10 mph 1018.2mb 77f 75f
10:00pm 13 14 mph 1018.6mb 77f 75f
9:00pm 14 15 mph 1018.3mb 78f 75f
8:00pm 13 14 mph 1017.9mb 78f 76f
7:00pm 14 15 mph 1017.5mb 78f 75f
6:00pm 14 16 mph 1017.3mb 78f 75f
5:00pm 11 13 mph 1017.6mb 78f 75f
4:00pm 13 15 mph 1017.9mb 78f 74f
3:00pm 10 11 mph 1018.2mb 78f 73f
2:00pm 9 10 mph 1018.5mb 78f 72f
1:00pm 5 6 mph 1019mb 78f 71f
12:00pm 2 3 mph 1019.3mb 77f 70f
11:00am  -  2 mph 1019.3mb 77f 70f
10:00am 6 7 mph 1019.1mb 77f 69f
9:00am 8 9 mph 1018.9mb 77f 66f
8:00am 10 11 mph 1018.5mb 77f 64f
7:00am 13 14 mph 1018.1mb 77f 63f
6:00am 9 10 mph 1017.6mb 77f 63f
5:00am 11 14 mph 1017mb 77f 64f
4:00am 11 13 mph 1016.6mb 77f 64f
3:00am 11 13 mph 1016.5mb 77f 65f
2:00am 13 14 mph 1016.6mb 77f 66f
1:00am 14 15 mph 1016.7mb 77f 67f
12:00am 10 11 mph 1016.7mb 77f 68f
Tue 07/29 11:00pm 9 11 mph 1016.6mb 78f 68f
10:00pm 14 16 mph 1016mb 78f 71f
9:00pm 11 14 mph 1015.6mb 78f 70f
8:00pm 14 17 mph 1015.4mb 78f 72f
7:00pm 13 15 mph 1015.1mb 78f 73f
6:00pm 14 17 mph 1014.6mb 78f 73f
5:00pm 10 13 mph 1014.3mb 78f 72f
4:00pm 16 17 mph 1014.2mb 78f 71f
3:00pm 11 14 mph 1014.2mb 78f 70f
2:00pm 17 20 mph 1013.9mb 78f 69f
1:00pm 14 16 mph 1013.7mb 78f 69f
12:00pm 7 8 mph 1013.6mb 78f 69f
11:00am 7 8 mph 1013.9mb 77f 68f
10:00am 13 15 mph 1013.8mb 77f 66f
9:00am 15 16 mph 1013.9mb 78f 65f
8:00am 14 16 mph 1013.5mb 78f 65f